Time;durP1;ratioP1;P1;durP2;ratioP2;P2;SDS_P1;SDS_P2;PMS_P1;PMS_P2;Temp;Humidity;BMP_temperature;BMP_pressure;BME280_temperature;BME280_humidity;BME280_pressure;Samples;Min_cycle;Max_cycle;Signal;HPM_P1;HPM_P2
2022/09/11 00:00:49;;;;;;;;;;;;;;;19.54;54.96;99665.63;4415606;32;37235;-84
2022/09/11 00:03:17;;;;;;;;;;;;;;;19.59;55.16;99661.16;4429958;32;39038;-84
2022/09/11 00:05:44;;;;;;;;;;;;;;;19.69;54.33;99669.69;4429938;32;36936;-85
2022/09/11 00:08:13;;;;;;;;;;;;;;;19.67;54.52;99664.47;4430102;32;39053;-85
2022/09/11 00:10:41;;;;;;;;;;;;;;;19.68;54.40;99666.19;4427463;32;39346;-87
2022/09/11 00:13:09;;;;;;;;;;;;;;;19.68;54.78;99668.81;4416101;32;39344;-86
2022/09/11 00:15:37;;;;;;;;;;;;;;;19.66;54.43;99661.91;4415731;32;36693;-86
2022/09/11 00:18:06;;;;;;;;;;;;;;;19.38;55.05;99657.25;4429182;32;37986;-84
2022/09/11 00:20:33;;;;;;;;;;;;;;;19.51;54.79;99656.06;4430139;32;37882;-85
2022/09/11 00:23:03;;;;;;;;;;;;;;;19.51;54.82;99650.81;4429331;32;39926;-86
2022/09/11 00:25:34;;;;;;;;;;;;;;;19.67;54.18;99645.22;4400457;32;37881;-84
2022/09/11 00:28:02;;;;;;;;;;;;;;;19.66;54.39;99654.00;4401138;32;38236;-84
2022/09/11 00:30:29;;;;;;;;;;;;;;;19.70;53.85;99650.41;4415342;32;38431;-85
2022/09/11 00:32:57;;;;;;;;;;;;;;;19.71;53.91;99641.63;4415642;32;38819;-84
2022/09/11 00:35:24;;;;;;;;;;;;;;;19.84;53.93;99647.44;4416619;32;36628;-83
2022/09/11 00:37:51;;;;;;;;;;;;;;;19.55;54.24;99642.84;4390893;32;36631;-84
2022/09/11 00:40:19;;;;;;;;;;;;;;;19.47;54.78;99649.16;4415136;32;38391;-84
2022/09/11 00:42:50;;;;;;;;;;;;;;;19.62;54.00;99647.06;4416095;32;39219;-84
2022/09/11 00:45:22;;;;;;;;;;;;;;;19.58;54.05;99650.66;4429876;32;36670;-83
2022/09/11 00:47:51;;;;;;;;;;;;;;;19.45;54.43;99645.69;4415526;32;37271;-84
2022/09/11 00:50:21;;;;;;;;;;;;;;;19.55;54.02;99655.97;4420081;32;37553;-84
2022/09/11 00:52:50;;;;;;;;;;;;;;;19.41;54.00;99651.91;4414281;32;39711;-84
2022/09/11 00:55:20;;;;;;;;;;;;;;;19.52;54.06;99646.41;4416409;32;36835;-84
2022/09/11 00:57:48;;;;;;;;;;;;;;;19.55;53.91;99655.97;4415778;32;37884;-85
2022/09/11 01:00:19;;;;;;;;;;;;;;;19.43;54.77;99652.75;4415666;32;39064;-83
2022/09/11 01:02:47;;;;;;;;;;;;;;;19.57;54.27;99659.44;4428535;32;39770;-83
2022/09/11 01:05:15;;;;;;;;;;;;;;;19.59;54.18;99652.38;4415617;32;36997;-84
2022/09/11 01:07:43;;;;;;;;;;;;;;;19.51;53.77;99648.19;4397801;32;37785;-83
2022/09/11 01:10:11;;;;;;;;;;;;;;;19.50;54.23;99643.84;4415738;32;38997;-84
2022/09/11 01:12:44;;;;;;;;;;;;;;;19.34;54.63;99645.09;4429254;32;38992;-82
2022/09/11 01:15:18;;;;;;;;;;;;;;;19.43;54.51;99647.50;4429257;32;36762;-84
2022/09/11 01:17:48;;;;;;;;;;;;;;;19.50;53.80;99641.22;4428694;32;37928;-84
2022/09/11 01:20:42;;;;;;;;;;;;;;;19.50;53.80;99628.09;4429433;32;38230;-84
2022/09/11 01:23:18;;;;;;;;;;;;;;;19.51;54.19;99629.81;4392998;32;38769;-85
2022/09/11 01:25:50;;;;;;;;;;;;;;;19.55;54.31;99634.97;4428415;32;37741;-84
2022/09/11 01:28:19;;;;;;;;;;;;;;;19.57;53.77;99633.19;4416190;32;38959;-84
2022/09/11 01:30:50;;;;;;;;;;;;;;;19.62;53.53;99632.19;4415856;32;37982;-83
2022/09/11 01:33:27;;;;;;;;;;;;;;;19.58;53.46;99629.66;4415523;32;39942;-83
2022/09/11 01:36:08;;;;;;;;;;;;;;;19.60;53.02;99628.72;4428937;32;38057;-84
2022/09/11 01:38:49;;;;;;;;;;;;;;;19.58;53.33;99624.41;4415256;32;38950;-85
2022/09/11 01:41:19;;;;;;;;;;;;;;;19.44;53.69;99614.25;4414786;32;39375;-84
2022/09/11 01:43:50;;;;;;;;;;;;;;;19.65;53.23;99612.87;4415432;32;38840;-84
2022/09/11 01:46:22;;;;;;;;;;;;;;;19.62;53.28;99610.28;4429438;32;37090;-83
2022/09/11 01:48:54;;;;;;;;;;;;;;;19.57;53.30;99606.94;4415052;32;37770;-83
2022/09/11 01:51:23;;;;;;;;;;;;;;;19.60;52.70;99606.88;4414791;32;38496;-84
2022/09/11 01:53:50;;;;;;;;;;;;;;;19.58;52.42;99608.66;4401016;32;39731;-84
2022/09/11 01:56:22;;;;;;;;;;;;;;;19.41;53.28;99607.28;4415934;32;37162;-84
2022/09/11 01:58:54;;;;;;;;;;;;;;;19.54;53.09;99601.75;4414832;32;39213;-84
2022/09/11 02:01:23;;;;;;;;;;;;;;;19.68;52.02;99599.66;4414072;32;37784;-84
2022/09/11 02:03:52;;;;;;;;;;;;;;;19.51;52.66;99593.03;4414797;32;38846;-85
2022/09/11 02:06:25;;;;;;;;;;;;;;;19.49;52.62;99594.84;4415227;32;37056;-85
2022/09/11 02:08:55;;;;;;;;;;;;;;;19.57;52.61;99599.91;4415500;32;39827;-85
2022/09/11 02:11:22;;;;;;;;;;;;;;;19.54;52.60;99599.13;4430811;32;38732;-85
2022/09/11 02:14:11;;;;;;;;;;;;;;;19.38;53.59;99607.38;4416884;32;38796;-84
2022/09/11 02:16:38;;;;;;;;;;;;;;;19.63;52.87;99601.53;4417004;32;37832;-85
2022/09/11 02:19:10;;;;;;;;;;;;;;;19.36;53.89;99603.03;4430785;32;37844;-85
2022/09/11 02:21:37;;;;;;;;;;;;;;;19.45;53.05;99603.69;4430969;32;38215;-85
2022/09/11 02:24:05;;;;;;;;;;;;;;;19.24;54.07;99610.31;4430579;32;39858;-83
2022/09/11 02:26:33;;;;;;;;;;;;;;;19.19;54.60;99601.69;4421074;32;37197;-84
2022/09/11 02:29:00;;;;;;;;;;;;;;;19.20;53.47;99598.16;4412858;32;37574;-84
2022/09/11 02:31:28;;;;;;;;;;;;;;;19.17;54.58;99597.34;4431390;32;39174;-84
2022/09/11 02:33:56;;;;;;;;;;;;;;;19.04;54.82;99591.53;4399773;32;985159;-85
2022/09/11 02:36:30;;;;;;;;;;;;;;;19.12;54.17;99594.00;4430607;32;36481;-84
2022/09/11 02:39:00;;;;;;;;;;;;;;;19.03;54.12;99595.91;4431112;32;38842;-84
2022/09/11 02:41:50;;;;;;;;;;;;;;;19.07;54.59;99591.47;4431608;32;38056;-83
2022/09/11 02:44:24;;;;;;;;;;;;;;;19.02;54.89;99599.44;4392917;32;47024;-82
2022/09/11 02:47:05;;;;;;;;;;;;;;;19.05;54.77;99603.78;4417126;32;37998;-83
2022/09/11 02:49:43;;;;;;;;;;;;;;;18.99;54.86;99602.13;4430957;32;39024;-83
2022/09/11 02:52:19;;;;;;;;;;;;;;;19.00;54.61;99597.75;4430447;32;37756;-84
2022/09/11 02:55:07;;;;;;;;;;;;;;;19.03;54.93;99601.16;4407957;32;40108;-83
2022/09/11 02:57:46;;;;;;;;;;;;;;;19.27;54.06;99605.00;4430703;32;37256;-83
2022/09/11 03:00:13;;;;;;;;;;;;;;;19.20;54.51;99598.16;4415516;32;37743;-82
2022/09/11 03:02:41;;;;;;;;;;;;;;;19.31;54.27;99600.53;4417071;32;39231;-83
2022/09/11 03:05:10;;;;;;;;;;;;;;;19.18;53.89;99610.47;4430915;32;38921;-82
2022/09/11 03:07:39;;;;;;;;;;;;;;;19.28;53.93;99608.50;4430137;32;36845;-84
2022/09/11 03:10:07;;;;;;;;;;;;;;;19.20;54.51;99607.78;4431308;32;38380;-84
2022/09/11 03:12:35;;;;;;;;;;;;;;;19.32;54.25;99606.66;4417158;32;37886;-84
2022/09/11 03:15:02;;;;;;;;;;;;;;;19.16;54.94;99604.37;4415610;32;38741;-83
2022/09/11 03:17:31;;;;;;;;;;;;;;;19.02;55.70;99609.94;4409552;32;37359;-83
2022/09/11 03:19:58;;;;;;;;;;;;;;;19.14;55.27;99606.16;4399387;32;37801;-84
2022/09/11 03:22:25;;;;;;;;;;;;;;;19.25;54.95;99608.56;4399897;32;36840;-83
2022/09/11 03:24:53;;;;;;;;;;;;;;;19.18;54.97;99609.59;4401994;32;39591;-83
2022/09/11 03:27:20;;;;;;;;;;;;;;;19.25;54.54;99601.53;4399733;32;38041;-84
2022/09/11 03:29:48;;;;;;;;;;;;;;;19.30;54.23;99604.03;4383832;32;37946;-83
2022/09/11 03:32:16;;;;;;;;;;;;;;;19.09;54.97;99607.19;4385350;32;37990;-84
2022/09/11 03:34:43;;;;;;;;;;;;;;;19.14;54.80;99602.69;4383415;32;38745;-84
2022/09/11 03:37:10;;;;;;;;;;;;;;;19.20;54.48;99602.53;4387957;32;37641;-83
2022/09/11 03:39:39;;;;;;;;;;;;;;;19.28;54.32;99600.62;4400350;32;37849;-83
2022/09/11 03:42:06;;;;;;;;;;;;;;;19.42;53.97;99598.50;4399820;32;39005;-84
2022/09/11 03:44:33;;;;;;;;;;;;;;;19.21;54.86;99599.91;4383356;32;38861;-85
2022/09/11 03:47:01;;;;;;;;;;;;;;;19.24;55.03;99604.19;4399988;32;37012;-83
2022/09/11 03:49:28;;;;;;;;;;;;;;;19.23;54.67;99607.72;4399911;32;38706;-84
2022/09/11 03:51:55;;;;;;;;;;;;;;;19.33;54.62;99603.97;4398906;32;37330;-83
2022/09/11 03:54:24;;;;;;;;;;;;;;;19.24;54.62;99614.69;4399672;32;38762;-84
2022/09/11 03:56:53;;;;;;;;;;;;;;;19.31;54.91;99621.53;4400181;32;37314;-84
2022/09/11 03:59:20;;;;;;;;;;;;;;;19.26;55.31;99618.16;4398674;32;37609;-84
2022/09/11 04:01:49;;;;;;;;;;;;;;;19.21;55.25;99614.78;4399526;32;37849;-83
2022/09/11 04:04:17;;;;;;;;;;;;;;;19.34;54.95;99613.59;4400075;32;39635;-84
2022/09/11 04:06:45;;;;;;;;;;;;;;;19.37;54.76;99625.75;4385857;32;37416;-83
2022/09/11 04:09:12;;;;;;;;;;;;;;;19.34;54.46;99616.22;4399811;32;37993;-84
2022/09/11 04:11:39;;;;;;;;;;;;;;;19.20;55.43;99620.91;4399455;32;38840;-82
2022/09/11 04:14:07;;;;;;;;;;;;;;;19.31;55.22;99621.53;4400117;32;38757;-83
2022/09/11 04:16:35;;;;;;;;;;;;;;;19.31;55.03;99623.31;4385834;32;36812;-83
2022/09/11 04:19:03;;;;;;;;;;;;;;;19.31;55.37;99624.16;4257751;32;38305;-83
2022/09/11 04:21:31;;;;;;;;;;;;;;;19.48;54.44;99624.62;4414560;32;38634;-84
2022/09/11 04:23:59;;;;;;;;;;;;;;;19.43;54.88;99621.25;4427849;32;39536;-83
2022/09/11 04:26:28;;;;;;;;;;;;;;;19.47;54.74;99620.28;4430205;32;37450;-84
2022/09/11 04:28:57;;;;;;;;;;;;;;;19.43;54.98;99626.50;4416354;32;38866;-83
2022/09/11 04:31:26;;;;;;;;;;;;;;;19.43;55.32;99625.63;4416286;32;39306;-83
2022/09/11 04:33:54;;;;;;;;;;;;;;;19.41;55.38;99628.28;4429323;32;40828;-84
2022/09/11 04:36:25;;;;;;;;;;;;;;;19.36;55.52;99624.91;4430305;32;37348;-84
2022/09/11 04:38:54;;;;;;;;;;;;;;;19.36;55.37;99630.16;4429867;32;38011;-83
2022/09/11 04:41:22;;;;;;;;;;;;;;;19.39;55.41;99630.09;4430420;32;38827;-83
2022/09/11 04:43:52;;;;;;;;;;;;;;;19.45;55.44;99634.34;4430119;32;38951;-83
2022/09/11 04:46:20;;;;;;;;;;;;;;;19.34;55.58;99625.88;4430616;32;37801;-83
2022/09/11 04:48:47;;;;;;;;;;;;;;;19.49;54.96;99631.59;4429029;32;38008;-82
2022/09/11 04:51:25;;;;;;;;;;;;;;;19.56;54.75;99623.56;4429916;32;37974;-83
2022/09/11 04:53:56;;;;;;;;;;;;;;;19.39;55.42;99630.09;4428279;32;39691;-82
2022/09/11 04:56:25;;;;;;;;;;;;;;;19.51;55.18;99629.81;4430314;32;37395;-82
2022/09/11 04:58:54;;;;;;;;;;;;;;;19.41;55.44;99628.28;4415519;32;38383;-81
2022/09/11 05:01:22;;;;;;;;;;;;;;;19.36;55.84;99624.91;4427011;32;39417;-82
2022/09/11 05:03:51;;;;;;;;;;;;;;;19.36;56.04;99624.91;4416043;32;38580;-83
2022/09/11 05:06:18;;;;;;;;;;;;;;;19.45;55.52;99629.94;4430203;32;37236;-83
2022/09/11 05:08:46;;;;;;;;;;;;;;;19.48;55.19;99623.75;4430336;32;39004;-83
2022/09/11 05:11:15;;;;;;;;;;;;;;;19.41;55.96;99623.03;4427817;32;38200;-85
2022/09/11 05:13:43;;;;;;;;;;;;;;;19.46;55.85;99626.44;4429998;32;39156;-83
2022/09/11 05:16:14;;;;;;;;;;;;;;;19.46;56.05;99621.19;4430583;32;37442;-84
2022/09/11 05:18:44;;;;;;;;;;;;;;;19.62;55.93;99626.03;4414791;32;38355;-84
2022/09/11 05:21:12;;;;;;;;;;;;;;;19.63;55.60;99625.16;4429876;32;39259;-83
2022/09/11 05:23:40;;;;;;;;;;;;;;;19.58;56.10;99627.87;4415914;32;38844;-82
2022/09/11 05:26:12;;;;;;;;;;;;;;;19.61;56.38;99640.09;4429972;32;38132;-84
2022/09/11 05:28:40;;;;;;;;;;;;;;;19.66;56.04;99640.88;4429741;32;37694;-83
2022/09/11 05:31:17;;;;;;;;;;;;;;;19.70;55.33;99650.41;4426701;32;39179;-83
2022/09/11 05:33:44;;;;;;;;;;;;;;;19.60;56.19;99648.88;4429231;32;38427;-84
2022/09/11 05:36:12;;;;;;;;;;;;;;;19.76;56.09;99649.41;4429836;32;36808;-84
2022/09/11 05:38:39;;;;;;;;;;;;;;;19.71;56.42;99652.13;4429679;32;38011;-84
2022/09/11 05:41:09;;;;;;;;;;;;;;;19.74;56.47;99652.03;4415699;32;39183;-84
2022/09/11 05:43:37;;;;;;;;;;;;;;;19.72;56.53;99659.13;4402936;32;37660;-84
2022/09/11 05:46:05;;;;;;;;;;;;;;;19.88;56.19;99659.59;4431268;32;38075;-84
2022/09/11 05:48:33;;;;;;;;;;;;;;;19.83;56.51;99657.06;4416321;32;38340;-83
2022/09/11 05:51:02;;;;;;;;;;;;;;;19.91;56.20;99657.75;4430914;32;38374;-84
2022/09/11 05:53:33;;;;;;;;;;;;;;;19.92;56.50;99650.75;4415604;32;39796;-83
2022/09/11 05:56:05;;;;;;;;;;;;;;;19.49;57.53;99657.84;4431307;32;37085;-83
2022/09/11 05:58:32;;;;;;;;;;;;;;;19.78;56.66;99664.19;4417727;32;37584;-85
2022/09/11 06:01:07;;;;;;;;;;;;;;;19.79;57.29;99671.19;4431201;32;37863;-84
2022/09/11 06:03:35;;;;;;;;;;;;;;;19.83;56.34;99671.97;4431307;32;39852;-87
2022/09/11 06:06:03;;;;;;;;;;;;;;;19.74;56.50;99678.31;4430803;32;38354;-88
2022/09/11 06:08:33;;;;;;;;;;;;;;;19.95;55.03;99672.53;4426397;32;38014;-90
2022/09/11 06:11:01;;;;;;;;;;;;;;;20.13;54.54;99678.22;4430275;32;38547;-82
2022/09/11 06:13:29;;;;;;;;;;;;;;;20.29;53.79;99682.16;4430395;32;38935;-84
2022/09/11 06:15:58;;;;;;;;;;;;;;;20.29;53.42;99682.16;4430007;32;37437;-86
2022/09/11 06:18:26;;;;;;;;;;;;;;;19.98;55.25;99677.72;4431039;32;39119;-82
2022/09/11 06:20:57;;;;;;;;;;;;;;;19.83;56.14;99678.09;4431588;32;38753;-89
2022/09/11 06:23:25;;;;;;;;;;;;;;;20.29;54.46;99686.56;4430833;32;39207;-91
2022/09/11 06:25:53;;;;;;;;;;;;;;;20.20;54.94;99682.44;4431336;32;36823;-86
2022/09/11 06:28:21;;;;;;;;;;;;;;;20.43;54.27;99680.06;4417027;32;38459;-88
2022/09/11 06:30:51;;;;;;;;;;;;;;;20.58;53.10;99675.31;4417416;32;36934;-88
2022/09/11 06:33:19;;;;;;;;;;;;;;;20.63;52.74;99670.78;4430659;32;38560;-86
2022/09/11 06:36:00;;;;;;;;;;;;;;;20.67;52.53;99667.16;4417767;32;37882;-86
2022/09/11 06:38:28;;;;;;;;;;;;;;;20.85;51.92;99671.91;4417066;32;38918;-87
2022/09/11 06:40:56;;;;;;;;;;;;;;;20.79;52.25;99666.81;4430700;32;39227;-86
2022/09/11 06:43:23;;;;;;;;;;;;;;;20.46;54.52;99662.47;4430813;32;39677;-83
2022/09/11 06:45:50;;;;;;;;;;;;;;;20.56;53.72;99663.97;4431109;32;37354;-85
2022/09/11 06:48:18;;;;;;;;;;;;;;;20.82;52.93;99661.47;4430914;32;38356;-85
2022/09/11 06:50:46;;;;;;;;;;;;;;;20.92;52.72;99666.47;4417278;32;37825;-84
2022/09/11 06:53:14;;;;;;;;;;;;;;;20.61;53.74;99662.97;4429980;32;40141;-85
2022/09/11 06:55:44;;;;;;;;;;;;;;;20.60;54.24;99670.88;4431127;32;37845;-86
2022/09/11 06:58:12;;;;;;;;;;;;;;;20.43;54.70;99664.28;4431936;32;38923;-78
2022/09/11 07:00:40;;;;;;;;;;;;;;;20.95;52.54;99667.25;4430031;32;38761;-79
2022/09/11 07:03:10;;;;;;;;;;;;;;;21.11;51.34;99667.66;4430730;32;39617;-79
2022/09/11 07:05:44;;;;;;;;;;;;;;;20.97;52.50;99665.44;4430773;32;36821;-84
2022/09/11 07:08:12;;;;;;;;;;;;;;;21.14;52.09;99659.66;4416681;32;38010;-83
2022/09/11 07:10:40;;;;;;;;;;;;;;;21.24;52.40;99658.47;4430798;32;39375;-84
2022/09/11 07:13:08;;;;;;;;;;;;;;;21.68;52.25;99653.62;4431160;32;39077;-87
2022/09/11 07:15:37;;;;;;;;;;;;;;;22.13;51.39;99649.50;4430999;32;36633;-87
2022/09/11 07:18:05;;;;;;;;;;;;;;;22.46;49.04;99642.19;4416003;32;38599;-86
2022/09/11 07:20:33;;;;;;;;;;;;;;;22.17;49.48;99640.59;4416075;32;38768;-83
2022/09/11 07:23:01;;;;;;;;;;;;;;;22.13;49.01;99639.81;4430634;32;39928;-85
2022/09/11 07:25:28;;;;;;;;;;;;;;;22.39;48.97;99645.97;4430859;32;37866;-83
2022/09/11 07:27:55;;;;;;;;;;;;;;;22.34;49.38;99634.75;4402876;32;37269;-84
2022/09/11 07:30:23;;;;;;;;;;;;;;;22.52;49.21;99639.34;4430211;32;39450;-83
2022/09/11 07:32:51;;;;;;;;;;;;;;;22.59;48.93;99632.97;4396959;32;37737;-84
2022/09/11 07:35:20;;;;;;;;;;;;;;;22.98;47.99;99629.78;4416740;32;37858;-82
2022/09/11 07:37:48;;;;;;;;;;;;;;;23.13;48.20;99629.19;4416082;32;38452;-81
2022/09/11 07:40:17;;;;;;;;;;;;;;;23.65;45.77;99620.97;4415847;32;37999;-83
2022/09/11 07:42:45;;;;;;;;;;;;;;;23.62;47.33;99631.66;4414737;32;39103;-82
2022/09/11 07:45:12;;;;;;;;;;;;;;;23.86;45.17;99635.06;4423911;32;37773;-82
2022/09/11 07:47:40;;;;;;;;;;;;;;;23.73;45.84;99628.59;4429761;32;39204;-81
2022/09/11 07:50:07;;;;;;;;;;;;;;;24.03;46.13;99637.88;4430239;32;39492;-83
2022/09/11 07:52:35;;;;;;;;;;;;;;;24.41;43.10;99638.06;4415047;32;39833;-84
2022/09/11 07:55:03;;;;;;;;;;;;;;;24.52;43.17;99641.06;4415538;32;35534;-81
2022/09/11 07:57:31;;;;;;;;;;;;;;;24.38;43.19;99643.44;4429871;32;39105;-81
2022/09/11 08:00:00;;;;;;;;;;;;;;;23.81;45.80;99637.06;4415538;32;38291;-82
2022/09/11 08:02:30;;;;;;;;;;;;;;;23.30;47.56;99640.88;4417494;32;39016;-84
2022/09/11 08:04:57;;;;;;;;;;;;;;;23.70;46.22;99649.84;4413126;32;37656;-83
2022/09/11 08:07:25;;;;;;;;;;;;;;;23.47;45.86;99643.69;4406660;32;39237;-83
2022/09/11 08:09:53;;;;;;;;;;;;;;;23.47;46.86;99651.63;4416980;32;37917;-83
2022/09/11 08:12:40;;;;;;;;;;;;;;;23.29;46.34;99654.97;4429021;32;39854;-82
2022/09/11 08:15:08;;;;;;;;;;;;;;;23.45;45.56;99650.81;4429568;32;37090;-84
2022/09/11 08:17:35;;;;;;;;;;;;;;;23.12;47.01;99645.94;4421943;32;39094;-83
2022/09/11 08:20:03;;;;;;;;;;;;;;;23.06;47.74;99646.16;4414047;32;37911;-84
2022/09/11 08:22:31;;;;;;;;;;;;;;;23.09;47.25;99647.84;4423072;32;39019;-84
2022/09/11 08:24:58;;;;;;;;;;;;;;;22.98;47.49;99645.63;4418278;32;37035;-83
2022/09/11 08:27:26;;;;;;;;;;;;;;;22.96;47.01;99642.16;4427501;32;39320;-83
2022/09/11 08:29:53;;;;;;;;;;;;;;;22.83;47.04;99647.00;4397422;32;39533;-85
2022/09/11 08:32:20;;;;;;;;;;;;;;;23.18;46.38;99648.34;4418782;32;38963;-84
2022/09/11 08:34:49;;;;;;;;;;;;;;;23.03;46.33;99643.63;4421979;32;37455;-84
2022/09/11 08:37:17;;;;;;;;;;;;;;;22.89;47.16;99644.13;4429577;32;38768;-83
2022/09/11 08:39:44;;;;;;;;;;;;;;;22.90;48.28;99637.94;4414898;32;37985;-84
2022/09/11 08:42:13;;;;;;;;;;;;;;;22.85;49.77;99639.03;4422740;32;39413;-84
2022/09/11 08:44:42;;;;;;;;;;;;;;;23.33;48.15;99640.75;4429436;32;36447;-83
2022/09/11 08:47:18;;;;;;;;;;;;;;;23.21;47.76;99642.09;4425890;32;38458;-84
2022/09/11 08:49:48;;;;;;;;;;;;;;;23.30;47.65;99640.88;4418955;32;38624;-84
2022/09/11 08:52:15;;;;;;;;;;;;;;;23.63;46.19;99639.50;4413908;32;38742;-84
2022/09/11 08:54:42;;;;;;;;;;;;;;;23.48;47.26;99644.53;4426194;32;37281;-84
2022/09/11 08:57:15;;;;;;;;;;;;;;;23.63;45.17;99639.50;4413536;32;38463;-84
2022/09/11 08:59:49;;;;;;;;;;;;;;;23.21;47.82;99642.94;4413954;32;38124;-85
2022/09/11 09:02:37;;;;;;;;;;;;;;;23.13;46.66;99645.03;4414329;32;39544;-84
2022/09/11 09:05:23;;;;;;;;;;;;;;;23.28;46.19;99642.69;4428259;32;38227;-84
2022/09/11 09:08:00;;;;;;;;;;;;;;;23.48;46.32;99645.41;4399990;32;36751;-84
2022/09/11 09:10:38;;;;;;;;;;;;;;;24.11;45.84;99646.34;4414687;32;38999;-84
2022/09/11 09:13:18;;;;;;;;;;;;;;;23.81;47.78;99637.06;4403718;32;39642;-84
2022/09/11 09:16:01;;;;;;;;;;;;;;;23.92;47.93;99640.09;4416739;32;36851;-84
2022/09/11 09:18:33;;;;;;;;;;;;;;;24.24;45.01;99643.16;4427715;32;37927;-85
2022/09/11 09:21:05;;;;;;;;;;;;;;;24.47;44.01;99637.75;4425784;32;38790;-84
2022/09/11 09:23:38;;;;;;;;;;;;;;;23.97;46.49;99640.78;4413936;32;38818;-83
2022/09/11 09:26:08;;;;;;;;;;;;;;;23.70;47.94;99634.00;4405003;32;37736;-82
2022/09/11 09:28:43;;;;;;;;;;;;;;;24.59;43.49;99631.91;4413414;32;37600;-81
2022/09/11 09:31:10;;;;;;;;;;;;;;;24.53;44.75;99637.47;4422094;32;38639;-82
2022/09/11 09:33:43;;;;;;;;;;;;;;;24.45;43.38;99634.34;4411405;32;39839;-82
2022/09/11 09:36:12;;;;;;;;;;;;;;;24.06;43.45;99643.06;4412096;32;38988;-81
2022/09/11 09:38:39;;;;;;;;;;;;;;;24.07;43.89;99639.47;4413153;32;38745;-84
2022/09/11 09:41:09;;;;;;;;;;;;;;;23.63;44.96;99634.22;4412635;32;37955;-85
2022/09/11 09:43:42;;;;;;;;;;;;;;;23.83;44.07;99635.19;4420976;32;38798;-85
2022/09/11 09:46:22;;;;;;;;;;;;;;;23.94;44.79;99633.00;4424319;32;37674;-85
2022/09/11 09:48:50;;;;;;;;;;;;;;;23.81;45.13;99631.78;4427888;32;37894;-85
2022/09/11 09:51:19;;;;;;;;;;;;;;;24.03;46.23;99637.88;4427827;32;39119;-85
2022/09/11 09:53:52;;;;;;;;;;;;;;;24.47;43.05;99632.47;4412005;32;39056;-85
2022/09/11 09:56:20;;;;;;;;;;;;;;;24.78;41.17;99626.66;4426585;32;37011;-85
2022/09/11 09:58:59;;;;;;;;;;;;;;;24.91;40.79;99632.25;4428081;32;37837;-85
2022/09/11 10:01:46;;;;;;;;;;;;;;;24.82;42.20;99632.66;4411329;32;37844;-84
2022/09/11 10:04:21;;;;;;;;;;;;;;;24.43;44.88;99630.88;4425618;32;39052;-84
2022/09/11 10:06:50;;;;;;;;;;;;;;;24.23;45.16;99631.75;4422965;32;37939;-84
2022/09/11 10:09:22;;;;;;;;;;;;;;;24.23;44.54;99628.25;4412061;32;37757;-80
2022/09/11 10:11:54;;;;;;;;;;;;;;;24.30;43.29;99624.38;4427373;32;37672;-82
2022/09/11 10:14:22;;;;;;;;;;;;;;;24.11;46.86;99630.47;4413023;32;39359;-83
2022/09/11 10:17:18;;;;;;;;;;;;;;;24.37;42.78;99631.12;4399861;32;37207;-81
2022/09/11 10:19:45;;;;;;;;;;;;;;;24.48;43.91;99638.62;4412170;32;37801;-83
2022/09/11 10:22:23;;;;;;;;;;;;;;;24.27;44.02;99629.81;4413817;32;38864;-83
2022/09/11 10:24:51;;;;;;;;;;;;;;;24.18;43.54;99630.22;4417363;32;38911;-82
2022/09/11 10:27:19;;;;;;;;;;;;;;;24.16;43.92;99634.72;4427895;32;37066;-84
2022/09/11 10:29:50;;;;;;;;;;;;;;;24.27;42.95;99635.09;4426877;32;39119;-83
2022/09/11 10:32:17;;;;;;;;;;;;;;;23.72;45.85;99637.44;4429904;32;39858;-83
2022/09/11 10:34:44;;;;;;;;;;;;;;;23.36;47.27;99635.34;4430052;32;38530;-83
2022/09/11 10:37:14;;;;;;;;;;;;;;;23.40;46.73;99634.28;4415392;32;38103;-85
2022/09/11 10:39:43;;;;;;;;;;;;;;;23.87;44.37;99634.19;4429216;32;38177;-86
2022/09/11 10:42:24;;;;;;;;;;;;;;;23.71;45.84;99635.72;4429696;32;37690;-84
2022/09/11 10:44:52;;;;;;;;;;;;;;;23.46;47.90;99631.41;4429927;32;39381;-83
2022/09/11 10:47:20;;;;;;;;;;;;;;;23.81;46.54;99634.44;4415235;32;37701;-85
2022/09/11 10:49:48;;;;;;;;;;;;;;;23.95;45.04;99629.41;4429331;32;38977;-82
2022/09/11 10:52:18;;;;;;;;;;;;;;;24.08;47.46;99614.72;4414577;32;37794;-86
2022/09/11 10:55:00;;;;;;;;;;;;;;;24.22;46.54;99613.28;4429502;32;39805;-83
2022/09/11 10:57:31;;;;;;;;;;;;;;;24.30;46.90;99611.16;4429497;32;36861;-84
2022/09/11 10:59:58;;;;;;;;;;;;;;;24.44;48.29;99598.22;4415027;32;38247;-83
2022/09/11 11:02:27;;;;;;;;;;;;;;;24.22;45.96;99600.03;4429583;32;37999;-83
2022/09/11 11:04:55;;;;;;;;;;;;;;;24.23;45.70;99596.50;4428555;32;39831;-82
2022/09/11 11:07:44;;;;;;;;;;;;;;;24.32;45.64;99601.38;4429007;32;38793;-82
2022/09/11 11:10:31;;;;;;;;;;;;;;;24.08;46.87;99601.50;4428852;32;37388;-82
2022/09/11 11:13:03;;;;;;;;;;;;;;;24.11;48.06;99604.03;4423654;32;38907;-80
2022/09/11 11:15:37;;;;;;;;;;;;;;;24.36;44.79;99598.53;4428687;32;39154;-81
2022/09/11 11:18:10;;;;;;;;;;;;;;;24.00;45.98;99595.72;4261722;32;5003646;-84
2022/09/11 11:20:47;;;;;;;;;;;;;;;24.77;43.89;99602.91;4414374;32;38158;-85
2022/09/11 11:23:17;;;;;;;;;;;;;;;25.23;41.52;99598.13;4401294;32;38063;-84
2022/09/11 11:25:47;;;;;;;;;;;;;;;25.38;41.38;99592.06;4413744;32;40126;-84
2022/09/11 11:28:18;;;;;;;;;;;;;;;25.66;42.11;99593.38;4425992;32;36870;-85
2022/09/11 11:31:00;;;;;;;;;;;;;;;25.93;41.57;99592.00;4426975;32;38235;-82
2022/09/11 11:33:28;;;;;;;;;;;;;;;25.84;41.26;99587.16;4422566;32;38192;-84
2022/09/11 11:35:56;;;;;;;;;;;;;;;26.15;38.33;99590.91;4427781;32;38949;-84
2022/09/11 11:38:30;;;;;;;;;;;;;;;25.97;38.69;99582.97;4428005;32;38501;-83
2022/09/11 11:41:27;;;;;;;;;;;;;;;26.00;38.64;99586.38;4406846;32;37817;-82
2022/09/11 11:43:54;;;;;;;;;;;;;;;25.43;40.59;99592.72;4386830;32;38336;-84
2022/09/11 11:46:23;;;;;;;;;;;;;;;25.16;41.14;99588.75;4395367;32;38686;-87
2022/09/11 11:49:01;;;;;;;;;;;;;;;25.41;40.27;99594.59;4375279;32;37436;-86
2022/09/11 11:51:33;;;;;;;;;;;;;;;24.87;43.67;99587.44;4368942;32;38165;-86
2022/09/11 11:54:02;;;;;;;;;;;;;;;24.90;41.76;99593.47;4359797;32;37839;-85
2022/09/11 11:56:34;;;;;;;;;;;;;;;25.18;41.41;99597.50;4384601;32;40358;-84
2022/09/11 11:59:16;;;;;;;;;;;;;;;24.82;43.52;99591.19;4384450;32;38049;-84
2022/09/11 12:01:47;;;;;;;;;;;;;;;24.94;42.40;99589.72;4382506;32;38814;-85
2022/09/11 12:04:33;;;;;;;;;;;;;;;24.66;41.18;99589.28;4391654;32;38500;-86
2022/09/11 12:07:01;;;;;;;;;;;;;;;24.48;42.30;99591.00;4398127;32;39471;-85
2022/09/11 12:09:30;;;;;;;;;;;;;;;24.85;41.74;99587.50;4384947;32;37351;-85
2022/09/11 12:12:02;;;;;;;;;;;;;;;24.66;42.96;99594.59;4384944;32;39276;-85
2022/09/11 12:14:33;;;;;;;;;;;;;;;23.97;44.93;99601.12;4384752;32;38808;-84
2022/09/11 12:17:19;;;;;;;;;;;;;;;24.15;46.06;99599.47;4384316;32;39208;-83
2022/09/11 12:20:05;;;;;;;;;;;;;;;24.24;45.99;99608.78;4398856;32;37027;-85
2022/09/11 12:22:36;;;;;;;;;;;;;;;23.59;50.23;99611.50;4397663;32;38292;-84
2022/09/11 12:25:22;;;;;;;;;;;;;;;23.45;52.68;99616.47;4398349;32;37752;-83
2022/09/11 12:27:54;;;;;;;;;;;;;;;23.39;53.18;99619.37;4383714;32;39032;-84
2022/09/11 12:30:23;;;;;;;;;;;;;;;23.20;54.49;99617.47;4385021;32;38047;-83
2022/09/11 12:32:51;;;;;;;;;;;;;;;23.24;53.61;99609.41;4396930;32;37883;-84
2022/09/11 12:35:20;;;;;;;;;;;;;;;22.90;55.44;99600.13;4384240;32;37857;-83
2022/09/11 12:38:14;;;;;;;;;;;;;;;22.80;57.42;99593.47;4384320;32;40589;-84
2022/09/11 12:40:53;;;;;;;;;;;;;;;23.20;53.69;99591.06;4376982;32;38097;-84
2022/09/11 12:43:45;;;;;;;;;;;;;;;23.29;55.24;99602.16;4394139;32;38932;-83
2022/09/11 12:46:21;;;;;;;;;;;;;;;23.56;54.03;99601.03;4375676;32;39303;-84
2022/09/11 12:49:11;;;;;;;;;;;;;;;23.30;57.07;99602.09;4383158;32;38395;-83
2022/09/11 12:51:58;;;;;;;;;;;;;;;23.76;54.28;99604.66;4396964;32;37547;-80
2022/09/11 12:54:27;;;;;;;;;;;;;;;23.76;54.48;99602.03;4395729;32;38092;-82
2022/09/11 12:57:04;;;;;;;;;;;;;;;23.91;53.58;99596.09;4398331;32;39304;-83
2022/09/11 12:59:37;;;;;;;;;;;;;;;23.67;53.23;99598.84;4383411;32;40199;-86
2022/09/11 13:02:24;;;;;;;;;;;;;;;23.50;52.77;99601.28;4397012;32;36928;-81
2022/09/11 13:04:52;;;;;;;;;;;;;;;23.35;54.14;99599.25;4398270;32;39273;-83